createdAt,value
2022-09-17T00:00:11.308Z,405.48
2022-09-17T00:05:18.692Z,405.78
2022-09-17T00:10:25.782Z,406.13
2022-09-17T00:15:33.028Z,407.00
2022-09-17T00:20:40.430Z,406.83
2022-09-17T00:25:47.568Z,407.16
2022-09-17T00:30:54.842Z,406.97
2022-09-17T00:36:02.155Z,407.67
2022-09-17T00:41:09.311Z,407.35
2022-09-17T00:46:16.724Z,407.96
2022-09-17T00:51:23.943Z,408.39
2022-09-17T00:56:31.039Z,408.57
2022-09-17T01:01:38.291Z,408.48
2022-09-17T01:06:45.594Z,409.17
2022-09-17T01:11:52.709Z,408.69
2022-09-17T01:16:59.972Z,408.06
2022-09-17T01:22:07.287Z,406.95
2022-09-17T01:27:14.369Z,404.51
2022-09-17T01:32:21.519Z,404.39
2022-09-17T01:37:30.746Z,404.33
2022-09-17T01:42:35.980Z,404.11
2022-09-17T01:47:43.193Z,403.94
2022-09-17T01:52:50.533Z,404.02
2022-09-17T01:57:57.638Z,403.26
2022-09-17T02:03:04.909Z,403.74
2022-09-17T02:08:12.242Z,403.47
2022-09-17T02:13:19.311Z,403.08
2022-09-17T02:18:26.499Z,403.32
2022-09-17T02:23:33.803Z,403.89
2022-09-17T02:28:40.933Z,402.64
2022-09-17T02:33:48.148Z,402.37
2022-09-17T02:38:55.469Z,402.76
2022-09-17T02:44:02.582Z,402.82
2022-09-17T02:49:09.748Z,403.36
2022-09-17T02:54:17.048Z,403.96
2022-09-17T02:59:24.155Z,403.77
2022-09-17T03:04:31.356Z,404.60
2022-09-17T03:09:38.691Z,404.36
2022-09-17T03:14:45.763Z,404.96
2022-09-17T03:19:52.995Z,404.53
2022-09-17T03:25:00.327Z,404.37
2022-09-17T03:30:07.397Z,404.29
2022-09-17T03:35:14.678Z,404.43
2022-09-17T03:40:22.074Z,404.32
2022-09-17T03:45:29.113Z,404.24
2022-09-17T03:50:36.299Z,403.52
2022-09-17T03:55:43.672Z,403.53
2022-09-17T04:00:50.709Z,402.86
2022-09-17T04:05:57.966Z,403.17
2022-09-17T04:11:05.369Z,403.25
2022-09-17T04:16:12.518Z,403.47
2022-09-17T04:21:19.662Z,403.10
2022-09-17T04:26:27.041Z,402.77
2022-09-17T04:31:34.256Z,402.80
2022-09-17T04:36:41.414Z,402.66
2022-09-17T04:41:48.735Z,401.58
2022-09-17T04:46:56.071Z,401.08
2022-09-17T04:52:03.105Z,402.15
2022-09-17T04:57:10.507Z,402.37
2022-09-17T05:02:17.685Z,402.00
2022-09-17T05:07:24.907Z,400.61
2022-09-17T05:12:34.509Z,400.72
2022-09-17T05:17:39.304Z,400.01
2022-09-17T05:22:46.476Z,400.22
2022-09-17T05:27:53.836Z,399.40
2022-09-17T05:33:00.909Z,398.33
2022-09-17T05:38:08.113Z,398.02
2022-09-17T05:43:15.465Z,398.33
2022-09-17T05:48:22.520Z,397.02
2022-09-17T05:53:29.727Z,395.94
2022-09-17T05:58:37.056Z,396.28
2022-09-17T06:03:44.129Z,396.39
2022-09-17T06:08:51.341Z,396.44
2022-09-17T06:13:58.697Z,395.43
2022-09-17T06:19:05.748Z,395.45
2022-09-17T06:24:12.958Z,393.94
2022-09-17T06:29:20.278Z,392.64
2022-09-17T06:34:27.362Z,392.05
2022-09-17T06:39:34.567Z,392.07
2022-09-17T06:44:41.898Z,391.56
2022-09-17T06:49:48.978Z,391.39
2022-09-17T06:54:56.161Z,391.77
2022-09-17T07:00:03.508Z,391.40
2022-09-17T07:05:10.599Z,391.65
2022-09-17T07:10:17.862Z,391.08
2022-09-17T07:15:25.235Z,390.78
2022-09-17T07:20:32.333Z,390.40
2022-09-17T07:25:39.586Z,390.28
2022-09-17T07:30:46.962Z,389.90
2022-09-17T07:35:54.029Z,389.29
2022-09-17T07:41:01.237Z,389.27
2022-09-17T07:46:08.631Z,388.67
2022-09-17T07:51:15.644Z,388.60
2022-09-17T07:56:22.914Z,389.25
2022-09-17T08:01:30.352Z,388.49
2022-09-17T08:06:37.360Z,387.65
2022-09-17T08:11:55.600Z,387.50
2022-09-17T08:16:52.003Z,386.33
2022-09-17T08:21:59.101Z,387.13
2022-09-17T08:27:06.340Z,387.08
2022-09-17T08:32:13.668Z,387.17
2022-09-17T08:37:20.789Z,387.20
2022-09-17T08:42:27.992Z,387.06
2022-09-17T08:47:35.350Z,386.28
2022-09-17T08:52:42.408Z,386.09
2022-09-17T08:57:49.591Z,386.18
2022-09-17T09:02:56.924Z,385.81
2022-09-17T09:08:04.017Z,385.27
2022-09-17T09:13:11.285Z,385.58
2022-09-17T09:18:18.583Z,385.27
2022-09-17T09:23:25.633Z,385.70
2022-09-17T09:28:32.836Z,385.87
2022-09-17T09:33:43.325Z,385.79
2022-09-17T09:38:47.312Z,384.90
2022-09-17T09:44:05.926Z,384.96
2022-09-17T09:49:01.903Z,385.10
2022-09-17T09:54:08.979Z,385.97
2022-09-17T09:59:16.177Z,385.57
2022-09-17T10:04:23.523Z,385.26
2022-09-17T10:09:30.603Z,385.35
2022-09-17T10:14:37.834Z,384.89
2022-09-17T10:19:45.225Z,382.61
2022-09-17T10:24:52.320Z,382.90
2022-09-17T10:29:59.529Z,383.11
2022-09-17T10:35:06.896Z,382.89
2022-09-17T10:40:14.082Z,383.00
2022-09-17T10:45:21.256Z,382.52
2022-09-17T10:50:28.675Z,383.48
2022-09-17T10:55:35.765Z,383.30
2022-09-17T11:00:43.006Z,384.11
2022-09-17T11:05:50.394Z,384.06
2022-09-17T11:10:57.476Z,384.71
2022-09-17T11:16:04.742Z,385.08
2022-09-17T11:21:12.049Z,385.89
2022-09-17T11:26:19.221Z,385.33
2022-09-17T11:31:26.541Z,386.00
2022-09-17T11:36:33.817Z,385.76
2022-09-17T11:41:40.901Z,386.93
2022-09-17T11:46:48.203Z,387.51
2022-09-17T11:51:55.453Z,387.92
2022-09-17T11:57:06.418Z,387.42
2022-09-17T12:02:09.858Z,387.50
2022-09-17T12:07:17.019Z,384.07
2022-09-17T12:12:47.607Z,382.59
2022-09-17T12:17:31.320Z,383.55
2022-09-17T12:22:40.432Z,383.87
2022-09-17T12:27:45.714Z,384.21
2022-09-17T12:32:52.988Z,383.13
2022-09-17T12:38:00.364Z,381.63
2022-09-17T12:43:07.479Z,381.65
2022-09-17T12:48:14.742Z,381.25
2022-09-17T12:53:22.129Z,380.70
2022-09-17T12:58:29.175Z,380.39
2022-09-17T13:03:36.346Z,380.06
2022-09-17T13:08:43.640Z,379.91
2022-09-17T13:13:50.770Z,379.78
2022-09-17T13:19:16.546Z,381.12
2022-09-17T13:24:05.435Z,381.72
2022-09-17T13:29:12.566Z,383.21
2022-09-17T13:34:19.807Z,383.46
2022-09-17T13:39:27.118Z,384.05
2022-09-17T13:44:34.300Z,384.24
2022-09-17T13:49:41.563Z,383.43
2022-09-17T13:54:48.922Z,382.08
2022-09-17T13:59:56.097Z,380.39
2022-09-17T14:05:03.368Z,376.82
2022-09-17T14:10:10.680Z,377.15
2022-09-17T14:15:17.792Z,376.33
2022-09-17T14:20:26.260Z,377.29
2022-09-17T14:25:33.603Z,377.94
2022-09-17T14:30:40.686Z,378.30
2022-09-17T14:35:47.884Z,378.72
2022-09-17T14:40:55.314Z,379.72
2022-09-17T14:46:02.455Z,380.36
2022-09-17T14:51:09.714Z,380.78
2022-09-17T14:56:17.086Z,380.93
2022-09-17T15:01:24.267Z,380.82
2022-09-17T15:06:31.424Z,380.90
2022-09-17T15:11:38.767Z,379.33
2022-09-17T15:16:45.900Z,378.84
2022-09-17T15:21:53.174Z,379.02
2022-09-17T15:27:00.509Z,379.58
2022-09-17T15:32:07.613Z,379.93
2022-09-17T15:37:14.839Z,380.18
2022-09-17T15:42:22.143Z,380.13
2022-09-17T15:47:29.272Z,380.65
2022-09-17T15:52:36.415Z,381.24
2022-09-17T15:57:43.822Z,380.93
2022-09-17T16:02:51.088Z,381.29
2022-09-17T16:07:58.154Z,381.69
2022-09-17T16:13:05.511Z,381.27
2022-09-17T16:18:12.599Z,380.90
2022-09-17T16:23:19.799Z,381.08
2022-09-17T16:28:27.202Z,380.90
2022-09-17T16:33:34.334Z,380.08
2022-09-17T16:38:41.590Z,380.07
2022-09-17T16:43:48.982Z,380.59
2022-09-17T16:48:56.130Z,379.90
2022-09-17T16:54:03.365Z,380.29
2022-09-17T16:59:10.687Z,379.51
2022-09-17T17:04:17.828Z,379.44
2022-09-17T17:09:25.071Z,379.40
2022-09-17T17:14:32.373Z,378.16
2022-09-17T17:19:39.662Z,378.70
2022-09-17T17:24:46.852Z,377.24
2022-09-17T17:29:54.194Z,377.24
2022-09-17T17:35:01.277Z,376.83
2022-09-17T17:40:08.565Z,376.77
2022-09-17T17:45:15.809Z,375.42
2022-09-17T17:50:24.242Z,374.67
2022-09-17T17:55:31.450Z,374.82
2022-09-17T18:00:38.789Z,375.23
2022-09-17T18:05:45.865Z,375.21
2022-09-17T18:10:53.102Z,374.15
2022-09-17T18:16:00.545Z,373.91
2022-09-17T18:21:07.538Z,373.27
2022-09-17T18:26:14.781Z,373.81
2022-09-17T18:31:22.170Z,373.35
2022-09-17T18:36:29.474Z,373.53
2022-09-17T18:41:36.886Z,373.14
2022-09-17T18:46:44.345Z,371.36
2022-09-17T18:51:51.461Z,370.76
2022-09-17T18:56:58.674Z,370.49
2022-09-17T19:02:06.090Z,369.57
2022-09-17T19:07:13.141Z,370.71
2022-09-17T19:12:20.336Z,369.33
2022-09-17T19:17:27.725Z,369.72
2022-09-17T19:22:34.800Z,369.56
2022-09-17T19:27:42.057Z,369.43
2022-09-17T19:32:49.384Z,368.02
2022-09-17T19:37:56.449Z,368.71
2022-09-17T19:43:03.687Z,367.86
2022-09-17T19:48:11.108Z,368.21
2022-09-17T19:53:19.108Z,367.58
2022-09-17T19:58:26.313Z,368.43
2022-09-17T20:03:33.627Z,367.19
2022-09-17T20:08:44.660Z,366.01
2022-09-17T20:13:47.955Z,365.55
2022-09-17T20:18:55.351Z,365.63
2022-09-17T20:24:02.426Z,364.54
2022-09-17T20:29:09.669Z,362.95
2022-09-17T20:34:17.022Z,361.39
2022-09-17T20:39:24.770Z,361.23
2022-09-17T20:44:31.645Z,361.61
2022-09-17T20:49:38.980Z,361.36
2022-09-17T20:54:46.128Z,361.18
2022-09-17T20:59:53.364Z,361.75
2022-09-17T21:05:00.678Z,361.78
2022-09-17T21:10:07.782Z,361.72
2022-09-17T21:15:14.974Z,361.72
2022-09-17T21:20:22.372Z,361.38
2022-09-17T21:25:29.511Z,360.97
2022-09-17T21:30:36.800Z,360.82
2022-09-17T21:35:44.160Z,360.36
2022-09-17T21:40:51.286Z,360.60
2022-09-17T21:45:58.518Z,360.77
2022-09-17T21:51:05.894Z,360.31
2022-09-17T21:56:13.036Z,359.33
2022-09-17T22:01:20.485Z,359.26
2022-09-17T22:06:27.721Z,358.88
2022-09-17T22:11:34.779Z,358.70
2022-09-17T22:16:41.961Z,358.30
2022-09-17T22:21:49.358Z,359.34
2022-09-17T22:26:58.129Z,358.65
2022-09-17T22:32:03.616Z,358.63
2022-09-17T22:37:10.946Z,358.17
2022-09-17T22:42:18.065Z,358.69
2022-09-17T22:47:25.282Z,358.04
2022-09-17T22:52:32.615Z,358.03
2022-09-17T22:57:39.692Z,358.04
2022-09-17T23:02:46.946Z,358.09
2022-09-17T23:07:54.256Z,358.19
2022-09-17T23:13:01.297Z,358.39
2022-09-17T23:18:08.578Z,358.16
2022-09-17T23:23:15.915Z,358.95
2022-09-17T23:28:23.040Z,358.64
2022-09-17T23:33:30.266Z,359.21
2022-09-17T23:38:37.638Z,358.65
2022-09-17T23:43:44.691Z,358.96
2022-09-17T23:48:51.977Z,358.73
2022-09-17T23:53:59.375Z,358.85
2022-09-17T23:59:06.452Z,358.56
